sensor_id;sensor_type;location;lat;lon;timestamp;pressure;altitude;pressure_sealevel;temperature;humidity
77739;BME280;66904;59.926;30.404;2023-09-12T00:01:05;101545.09;;;25.98;52.08
77739;BME280;66904;59.926;30.404;2023-09-12T00:06:05;101546.28;;;25.96;51.73
77739;BME280;66904;59.926;30.404;2023-09-12T00:11:07;101550.69;;;25.97;51.88
77739;BME280;66904;59.926;30.404;2023-09-12T00:16:11;101540.03;;;25.95;52.30
77739;BME280;66904;59.926;30.404;2023-09-12T00:21:11;101545.44;;;25.95;52.29
77739;BME280;66904;59.926;30.404;2023-09-12T00:26:12;101553.22;;;25.98;52.01
77739;BME280;66904;59.926;30.404;2023-09-12T00:31:12;101540.69;;;25.97;52.43
77739;BME280;66904;59.926;30.404;2023-09-12T00:36:13;101551.53;;;25.97;52.45
77739;BME280;66904;59.926;30.404;2023-09-12T00:41:14;101542.56;;;25.97;52.47
77739;BME280;66904;59.926;30.404;2023-09-12T00:46:18;101556.13;;;25.97;52.15
77739;BME280;66904;59.926;30.404;2023-09-12T00:51:20;101554.41;;;25.96;52.38
77739;BME280;66904;59.926;30.404;2023-09-12T00:56:21;101549.00;;;25.96;52.45
77739;BME280;66904;59.926;30.404;2023-09-12T01:01:22;101548.38;;;25.94;51.97
77739;BME280;66904;59.926;30.404;2023-09-12T01:06:24;101553.97;;;25.92;52.11
77739;BME280;66904;59.926;30.404;2023-09-12T01:11:29;101555.66;;;25.93;52.41
77739;BME280;66904;59.926;30.404;2023-09-12T01:16:30;101555.88;;;25.92;52.59
77739;BME280;66904;59.926;30.404;2023-09-12T01:27:21;101547.28;;;25.88;51.88
77739;BME280;66904;59.926;30.404;2023-09-12T01:32:23;101555.19;;;25.90;51.87
77739;BME280;66904;59.926;30.404;2023-09-12T01:37:24;101545.97;;;25.84;52.13
77739;BME280;66904;59.926;30.404;2023-09-12T01:42:28;101555.41;;;25.88;52.13
77739;BME280;66904;59.926;30.404;2023-09-12T01:47:30;101552.69;;;25.88;51.90
77739;BME280;66904;59.926;30.404;2023-09-12T01:52:32;101553.50;;;25.89;51.85
77739;BME280;66904;59.926;30.404;2023-09-12T01:57:33;101550.00;;;25.88;52.33
77739;BME280;66904;59.926;30.404;2023-09-12T02:02:33;101551.00;;;25.87;52.03
77739;BME280;66904;59.926;30.404;2023-09-12T02:07:37;101539.06;;;25.82;51.91
77739;BME280;66904;59.926;30.404;2023-09-12T02:12:38;101537.47;;;25.87;52.09
77739;BME280;66904;59.926;30.404;2023-09-12T02:17:39;101548.31;;;25.87;52.10
77739;BME280;66904;59.926;30.404;2023-09-12T02:22:40;101542.03;;;25.87;52.16
77739;BME280;66904;59.926;30.404;2023-09-12T02:27:40;101536.81;;;25.85;51.83
77739;BME280;66904;59.926;30.404;2023-09-12T02:32:44;101537.84;;;25.84;52.22
77739;BME280;66904;59.926;30.404;2023-09-12T02:37:44;101533.44;;;25.83;51.63
77739;BME280;66904;59.926;30.404;2023-09-12T02:42:45;101531.75;;;25.82;52.25
77739;BME280;66904;59.926;30.404;2023-09-12T02:47:45;101532.81;;;25.81;52.21
77739;BME280;66904;59.926;30.404;2023-09-12T02:52:46;101531.97;;;25.81;52.23
77739;BME280;66904;59.926;30.404;2023-09-12T02:57:47;101533.84;;;25.80;52.11
77739;BME280;66904;59.926;30.404;2023-09-12T03:02:47;101533.00;;;25.80;51.71
77739;BME280;66904;59.926;30.404;2023-09-12T03:07:48;101530.50;;;25.78;51.66
77739;BME280;66904;59.926;30.404;2023-09-12T03:12:49;101526.94;;;25.78;51.82
77739;BME280;66904;59.926;30.404;2023-09-12T03:17:49;101538.81;;;25.77;52.15
77739;BME280;66904;59.926;30.404;2023-09-12T03:22:50;101527.97;;;25.77;51.93
77739;BME280;66904;59.926;30.404;2023-09-12T03:27:50;101529.19;;;25.74;51.54
77739;BME280;66904;59.926;30.404;2023-09-12T03:32:51;101530.03;;;25.75;51.87
77739;BME280;66904;59.926;30.404;2023-09-12T03:37:52;101531.91;;;25.74;52.01
77739;BME280;66904;59.926;30.404;2023-09-12T03:42:52;101524.78;;;25.73;51.47
77739;BME280;66904;59.926;30.404;2023-09-12T03:47:53;101530.22;;;25.73;51.55
77739;BME280;66904;59.926;30.404;2023-09-12T03:52:53;101529.59;;;25.71;51.81
77739;BME280;66904;59.926;30.404;2023-09-12T03:57:54;101530.59;;;25.70;51.44
77739;BME280;66904;59.926;30.404;2023-09-12T04:02:54;101527.06;;;25.69;51.65
77739;BME280;66904;59.926;30.404;2023-09-12T04:07:55;101529.75;;;25.69;51.92
77739;BME280;66904;59.926;30.404;2023-09-12T04:12:56;101523.31;;;25.70;51.20
77739;BME280;66904;59.926;30.404;2023-09-12T04:17:56;101527.06;;;25.69;51.45
77739;BME280;66904;59.926;30.404;2023-09-12T04:22:57;101528.09;;;25.68;51.55
77739;BME280;66904;59.926;30.404;2023-09-12T04:27:57;101521.44;;;25.71;51.20
77739;BME280;66904;59.926;30.404;2023-09-12T04:32:58;101521.69;;;25.76;51.63
77739;BME280;66904;59.926;30.404;2023-09-12T04:37:58;101529.25;;;25.81;51.72
77739;BME280;66904;59.926;30.404;2023-09-12T04:42:59;101511.75;;;25.83;51.54
77739;BME280;66904;59.926;30.404;2023-09-12T04:48:00;101506.59;;;25.88;51.48
77739;BME280;66904;59.926;30.404;2023-09-12T04:53:00;101515.81;;;25.94;51.71
77739;BME280;66904;59.926;30.404;2023-09-12T04:58:01;101511.69;;;25.98;51.59
77739;BME280;66904;59.926;30.404;2023-09-12T05:03:02;101512.97;;;26.02;52.33
77739;BME280;66904;59.926;30.404;2023-09-12T05:08:04;101504.78;;;25.95;51.77
77739;BME280;66904;59.926;30.404;2023-09-12T05:13:05;101511.94;;;26.03;51.97
77739;BME280;66904;59.926;30.404;2023-09-12T05:18:06;101511.31;;;26.01;51.83
77739;BME280;66904;59.926;30.404;2023-09-12T05:23:07;101512.34;;;26.00;51.87
77739;BME280;66904;59.926;30.404;2023-09-12T05:28:07;101515.25;;;25.98;51.91
77739;BME280;66904;59.926;30.404;2023-09-12T05:33:08;101519.16;;;25.96;52.25
77739;BME280;66904;59.926;30.404;2023-09-12T05:38:08;101523.75;;;25.95;52.13
77739;BME280;66904;59.926;30.404;2023-09-12T05:43:09;101529.56;;;25.92;52.45
77739;BME280;66904;59.926;30.404;2023-09-12T05:48:09;101522.47;;;25.91;51.90
77739;BME280;66904;59.926;30.404;2023-09-12T05:53:10;101528.94;;;25.90;52.40
77739;BME280;66904;59.926;30.404;2023-09-12T05:58:11;101515.38;;;25.90;52.48
77739;BME280;66904;59.926;30.404;2023-09-12T06:03:14;101519.94;;;25.90;52.33
77739;BME280;66904;59.926;30.404;2023-09-12T06:08:15;101519.94;;;25.90;52.50
77739;BME280;66904;59.926;30.404;2023-09-12T06:13:15;101514.75;;;25.88;52.22
77739;BME280;66904;59.926;30.404;2023-09-12T06:18:16;101513.22;;;25.86;51.81
77739;BME280;66904;59.926;30.404;2023-09-12T06:23:16;101505.09;;;25.86;52.33
77739;BME280;66904;59.926;30.404;2023-09-12T06:28:27;101502.38;;;25.86;52.26
77739;BME280;66904;59.926;30.404;2023-09-12T06:33:28;101507.63;;;25.87;52.29
77739;BME280;66904;59.926;30.404;2023-09-12T06:38:29;101502.22;;;25.87;52.37
77739;BME280;66904;59.926;30.404;2023-09-12T06:43:30;101507.41;;;25.89;51.95
77739;BME280;66904;59.926;30.404;2023-09-12T06:48:31;101508.25;;;25.89;52.24
77739;BME280;66904;59.926;30.404;2023-09-12T06:53:31;101514.53;;;25.90;52.36
77739;BME280;66904;59.926;30.404;2023-09-12T06:58:32;101511.81;;;25.90;52.02
77739;BME280;66904;59.926;30.404;2023-09-12T07:03:34;101508.72;;;25.93;51.87
77739;BME280;66904;59.926;30.404;2023-09-12T07:08:35;101501.44;;;25.93;52.45
77739;BME280;66904;59.926;30.404;2023-09-12T07:13:36;101500.59;;;25.93;52.41
77739;BME280;66904;59.926;30.404;2023-09-12T07:18:37;101510.19;;;25.95;52.07
77739;BME280;66904;59.926;30.404;2023-09-12T07:23:37;101504.78;;;25.95;52.22
77739;BME280;66904;59.926;30.404;2023-09-12T07:28:38;101513.75;;;25.96;52.22
77739;BME280;66904;59.926;30.404;2023-09-12T07:33:38;101511.03;;;25.96;52.72
77739;BME280;66904;59.926;30.404;2023-09-12T07:38:39;101510.00;;;25.97;52.24
77739;BME280;66904;59.926;30.404;2023-09-12T07:43:41;101503.75;;;25.96;52.24
77739;BME280;66904;59.926;30.404;2023-09-12T07:48:42;101498.09;;;25.91;52.71
77739;BME280;66904;59.926;30.404;2023-09-12T07:53:43;101509.00;;;25.98;52.72
77739;BME280;66904;59.926;30.404;2023-09-12T07:58:43;101513.34;;;25.99;52.79
77739;BME280;66904;59.926;30.404;2023-09-12T08:03:44;101508.78;;;25.99;52.75
77739;BME280;66904;59.926;30.404;2023-09-12T08:08:45;101507.75;;;26.00;52.75
77739;BME280;66904;59.926;30.404;2023-09-12T08:13:48;101505.88;;;26.01;52.83
77739;BME280;66904;59.926;30.404;2023-09-12T08:18:49;101502.31;;;26.00;52.87
77739;BME280;66904;59.926;30.404;2023-09-12T08:23:49;101500.25;;;26.02;52.94
77739;BME280;66904;59.926;30.404;2023-09-12T08:28:50;101496.50;;;26.03;52.61
77739;BME280;66904;59.926;30.404;2023-09-12T08:33:50;101486.50;;;26.04;52.76
77739;BME280;66904;59.926;30.404;2023-09-12T08:38:51;101479.41;;;26.03;52.55
77739;BME280;66904;59.926;30.404;2023-09-12T08:43:52;101482.56;;;26.06;53.03
77739;BME280;66904;59.926;30.404;2023-09-12T08:48:55;101482.56;;;26.06;52.90
77739;BME280;66904;59.926;30.404;2023-09-12T08:53:56;101479.84;;;26.06;52.98
77739;BME280;66904;59.926;30.404;2023-09-12T08:58:58;101476.09;;;26.07;52.74
77739;BME280;66904;59.926;30.404;2023-09-12T09:04:01;101475.72;;;26.10;53.15
77739;BME280;66904;59.926;30.404;2023-09-12T09:09:06;101475.31;;;26.13;53.30
77739;BME280;66904;59.926;30.404;2023-09-12T09:14:08;101470.91;;;26.12;52.93
77739;BME280;66904;59.926;30.404;2023-09-12T09:19:08;101467.81;;;26.15;52.96
77739;BME280;66904;59.926;30.404;2023-09-12T09:24:13;101474.78;;;26.18;53.21
77739;BME280;66904;59.926;30.404;2023-09-12T09:29:19;101473.72;;;26.19;53.26
77739;BME280;66904;59.926;30.404;2023-09-12T09:34:21;101470.81;;;26.20;52.79
77739;BME280;66904;59.926;30.404;2023-09-12T09:39:25;101460.72;;;26.14;53.01
77739;BME280;66904;59.926;30.404;2023-09-12T09:44:27;101470.59;;;26.22;53.09
77739;BME280;66904;59.926;30.404;2023-09-12T09:49:31;101466.00;;;26.23;53.47
77739;BME280;66904;59.926;30.404;2023-09-12T09:54:32;101459.34;;;26.25;53.38
77739;BME280;66904;59.926;30.404;2023-09-12T09:59:33;101461.88;;;26.27;52.83
77739;BME280;66904;59.926;30.404;2023-09-12T10:04:34;101458.31;;;26.26;53.27
77739;BME280;66904;59.926;30.404;2023-09-12T10:09:35;101459.16;;;26.27;52.75
77739;BME280;66904;59.926;30.404;2023-09-12T10:14:38;101462.50;;;26.29;52.99
77739;BME280;66904;59.926;30.404;2023-09-12T10:19:56;101446.84;;;26.24;53.35
77739;BME280;66904;59.926;30.404;2023-09-12T10:25:04;101467.75;;;26.30;53.21
77739;BME280;66904;59.926;30.404;2023-09-12T10:30:07;101464.19;;;26.30;52.90
77739;BME280;66904;59.926;30.404;2023-09-12T10:35:08;101465.88;;;26.31;52.59
77739;BME280;66904;59.926;30.404;2023-09-12T10:40:10;101463.16;;;26.31;52.58
77739;BME280;66904;59.926;30.404;2023-09-12T10:45:11;101465.03;;;26.30;53.03
77739;BME280;66904;59.926;30.404;2023-09-12T10:50:12;101464.00;;;26.31;53.12
77739;BME280;66904;59.926;30.404;2023-09-12T10:55:16;101465.03;;;26.30;53.32
77739;BME280;66904;59.926;30.404;2023-09-12T11:00:20;101466.28;;;26.28;52.65
77739;BME280;66904;59.926;30.404;2023-09-12T11:10:31;101463.56;;;26.28;53.13
77739;BME280;66904;59.926;30.404;2023-09-12T11:15:32;101460.84;;;26.28;53.24
77739;BME280;66904;59.926;30.404;2023-09-12T11:20:59;101463.16;;;26.31;52.97
77739;BME280;66904;59.926;30.404;2023-09-12T11:26:05;101459.16;;;26.27;52.64
77739;BME280;66904;59.926;30.404;2023-09-12T11:31:06;101444.75;;;26.26;52.95
77739;BME280;66904;59.926;30.404;2023-09-12T11:36:13;101453.34;;;26.30;52.59
77739;BME280;66904;59.926;30.404;2023-09-12T11:41:14;101446.22;;;26.29;53.02
77739;BME280;66904;59.926;30.404;2023-09-12T11:46:15;101438.50;;;26.26;52.88
77739;BME280;66904;59.926;30.404;2023-09-12T11:51:15;101430.78;;;26.29;52.36
77739;BME280;66904;59.926;30.404;2023-09-12T11:56:16;101429.75;;;26.30;52.28
77739;BME280;66904;59.926;30.404;2023-09-12T12:01:17;101428.09;;;26.29;53.01
77739;BME280;66904;59.926;30.404;2023-09-12T12:06:17;101420.78;;;26.30;52.53
77739;BME280;66904;59.926;30.404;2023-09-12T12:11:18;101429.13;;;26.28;52.90
77739;BME280;66904;59.926;30.404;2023-09-12T12:16:19;101421.00;;;26.28;52.94
77739;BME280;66904;59.926;30.404;2023-09-12T12:21:20;101416.38;;;26.29;52.61
77739;BME280;66904;59.926;30.404;2023-09-12T12:26:20;101427.25;;;26.29;52.42
77739;BME280;66904;59.926;30.404;2023-09-12T12:31:22;101425.38;;;26.29;52.73
77739;BME280;66904;59.926;30.404;2023-09-12T12:36:24;101425.59;;;26.28;52.45
77739;BME280;66904;59.926;30.404;2023-09-12T12:41:27;101417.28;;;26.36;53.27
77739;BME280;66904;59.926;30.404;2023-09-12T12:46:28;101420.63;;;26.38;52.56
77739;BME280;66904;59.926;30.404;2023-09-12T12:51:29;101423.97;;;26.40;52.60
77739;BME280;66904;59.926;30.404;2023-09-12T12:56:30;101410.19;;;26.35;52.37
77739;BME280;66904;59.926;30.404;2023-09-12T13:01:31;101411.25;;;26.40;52.24
77739;BME280;66904;59.926;30.404;2023-09-12T13:06:32;101413.97;;;26.40;52.19
77739;BME280;66904;59.926;30.404;2023-09-12T13:11:36;101411.25;;;26.40;52.04
77739;BME280;66904;59.926;30.404;2023-09-12T13:16:37;101401.25;;;26.41;52.27
77739;BME280;66904;59.926;30.404;2023-09-12T13:21:40;101402.09;;;26.41;52.74
77739;BME280;66904;59.926;30.404;2023-09-12T13:26:41;101398.97;;;26.44;52.55
77739;BME280;66904;59.926;30.404;2023-09-12T13:31:42;101407.72;;;26.46;52.19
77739;BME280;66904;59.926;30.404;2023-09-12T13:36:43;101406.50;;;26.49;52.35
77739;BME280;66904;59.926;30.404;2023-09-12T13:41:43;101410.88;;;26.50;52.70
77739;BME280;66904;59.926;30.404;2023-09-12T13:46:45;101394.41;;;26.51;52.43
77739;BME280;66904;59.926;30.404;2023-09-12T13:51:47;101397.31;;;26.50;52.35
77739;BME280;66904;59.926;30.404;2023-09-12T13:56:47;101404.03;;;26.54;52.27
77739;BME280;66904;59.926;30.404;2023-09-12T14:01:48;101397.97;;;26.58;52.55
77739;BME280;66904;59.926;30.404;2023-09-12T14:06:49;101397.38;;;26.63;52.96
77739;BME280;66904;59.926;30.404;2023-09-12T14:11:49;101401.38;;;26.67;53.25
77739;BME280;66904;59.926;30.404;2023-09-12T14:16:50;101399.28;;;26.69;53.50
77739;BME280;66904;59.926;30.404;2023-09-12T14:21:50;101388.41;;;26.69;53.57
77739;BME280;66904;59.926;30.404;2023-09-12T14:26:51;101394.28;;;26.72;53.31
77739;BME280;66904;59.926;30.404;2023-09-12T14:31:51;101391.38;;;26.74;53.44
77739;BME280;66904;59.926;30.404;2023-09-12T14:36:58;101389.88;;;26.71;53.13
77739;BME280;66904;59.926;30.404;2023-09-12T14:41:58;101395.97;;;26.73;53.48
77739;BME280;66904;59.926;30.404;2023-09-12T14:47:00;101397.00;;;26.72;53.34
77739;BME280;66904;59.926;30.404;2023-09-12T14:52:00;101395.53;;;26.70;53.55
77739;BME280;66904;59.926;30.404;2023-09-12T14:57:01;101401.38;;;26.67;53.32
77739;BME280;66904;59.926;30.404;2023-09-12T15:02:01;101394.25;;;26.66;53.22
77739;BME280;66904;59.926;30.404;2023-09-12T15:07:02;101399.69;;;26.66;53.62
77739;BME280;66904;59.926;30.404;2023-09-12T15:12:03;101398.00;;;26.65;53.19
77739;BME280;66904;59.926;30.404;2023-09-12T15:17:03;101393.63;;;26.64;53.71
77739;BME280;66904;59.926;30.404;2023-09-12T15:22:04;101398.00;;;26.65;53.52
77739;BME280;66904;59.926;30.404;2023-09-12T15:27:05;101396.97;;;26.66;53.19
77739;BME280;66904;59.926;30.404;2023-09-12T15:32:05;101392.38;;;26.66;53.76
77739;BME280;66904;59.926;30.404;2023-09-12T15:37:11;101397.22;;;26.71;54.02
77739;BME280;66904;59.926;30.404;2023-09-12T15:42:11;101397.00;;;26.72;53.84
77739;BME280;66904;59.926;30.404;2023-09-12T15:47:12;101392.22;;;26.75;54.02
77739;BME280;66904;59.926;30.404;2023-09-12T15:52:13;101406.00;;;26.80;54.12
77739;BME280;66904;59.926;30.404;2023-09-12T15:57:14;101409.19;;;26.83;54.02
77739;BME280;66904;59.926;30.404;2023-09-12T16:02:16;101411.50;;;26.86;54.11
77739;BME280;66904;59.926;30.404;2023-09-12T16:07:17;101409.81;;;26.85;53.69
77739;BME280;66904;59.926;30.404;2023-09-12T16:12:17;101411.50;;;26.86;53.65
77739;BME280;66904;59.926;30.404;2023-09-12T16:17:18;101410.47;;;26.87;53.88
77739;BME280;66904;59.926;30.404;2023-09-12T16:22:18;101399.38;;;26.89;54.00
77739;BME280;66904;59.926;30.404;2023-09-12T16:27:19;101401.47;;;26.87;53.76
77739;BME280;66904;59.926;30.404;2023-09-12T16:32:23;101398.34;;;26.83;53.57
77739;BME280;66904;59.926;30.404;2023-09-12T16:37:24;101410.41;;;26.81;53.12
77739;BME280;66904;59.926;30.404;2023-09-12T16:42:24;101407.69;;;26.81;53.76
77739;BME280;66904;59.926;30.404;2023-09-12T16:47:27;101410.41;;;26.81;53.77
77739;BME280;66904;59.926;30.404;2023-09-12T16:52:29;101405.16;;;26.79;53.69
77739;BME280;66904;59.926;30.404;2023-09-12T16:57:30;101400.38;;;26.75;53.31
77739;BME280;66904;59.926;30.404;2023-09-12T17:02:31;101397.22;;;26.71;53.38
77739;BME280;66904;59.926;30.404;2023-09-12T17:07:35;101404.53;;;26.70;53.34
77739;BME280;66904;59.926;30.404;2023-09-12T17:12:35;101402.25;;;26.74;53.06
77739;BME280;66904;59.926;30.404;2023-09-12T17:17:36;101398.91;;;26.79;53.61
77739;BME280;66904;59.926;30.404;2023-09-12T17:22:37;101399.19;;;26.84;54.03
77739;BME280;66904;59.926;30.404;2023-09-12T17:27:38;101400.47;;;26.94;53.89
77739;BME280;66904;59.926;30.404;2023-09-12T17:32:38;101399.84;;;26.99;53.83
77739;BME280;66904;59.926;30.404;2023-09-12T17:37:39;101401.09;;;27.03;54.04
77739;BME280;66904;59.926;30.404;2023-09-12T17:42:40;101399.84;;;27.05;53.74
77739;BME280;66904;59.926;30.404;2023-09-12T17:47:40;101407.41;;;27.10;54.26
77739;BME280;66904;59.926;30.404;2023-09-12T17:52:41;101407.84;;;27.13;54.28
77739;BME280;66904;59.926;30.404;2023-09-12T17:57:41;101401.75;;;27.18;54.53
77739;BME280;66904;59.926;30.404;2023-09-12T18:02:42;101393.41;;;27.19;54.76
77739;BME280;66904;59.926;30.404;2023-09-12T18:07:43;101394.88;;;27.22;54.46
77739;BME280;66904;59.926;30.404;2023-09-12T18:12:43;101401.38;;;27.28;54.73
77739;BME280;66904;59.926;30.404;2023-09-12T18:17:44;101396.78;;;27.28;54.48
77739;BME280;66904;59.926;30.404;2023-09-12T18:22:45;101398.88;;;27.26;54.63
77739;BME280;66904;59.926;30.404;2023-09-12T18:27:46;101398.88;;;27.26;54.62
77739;BME280;66904;59.926;30.404;2023-09-12T18:32:46;101398.44;;;27.22;54.28
77739;BME280;66904;59.926;30.404;2023-09-12T18:37:47;101388.81;;;27.20;54.54
77739;BME280;66904;59.926;30.404;2023-09-12T18:42:48;101390.69;;;27.19;54.29
77739;BME280;66904;59.926;30.404;2023-09-12T18:47:49;101398.44;;;27.16;54.24
77739;BME280;66904;59.926;30.404;2023-09-12T18:52:50;101392.78;;;27.11;54.24
77739;BME280;66904;59.926;30.404;2023-09-12T18:57:51;101395.47;;;27.04;53.68
77739;BME280;66904;59.926;30.404;2023-09-12T19:02:51;101390.25;;;27.03;53.36
77739;BME280;66904;59.926;30.404;2023-09-12T19:07:53;101395.88;;;27.01;53.42
77739;BME280;66904;59.926;30.404;2023-09-12T19:12:54;101390.22;;;26.96;53.50
77739;BME280;66904;59.926;30.404;2023-09-12T19:17:55;101389.78;;;26.93;53.11
77739;BME280;66904;59.926;30.404;2023-09-12T19:22:56;101392.91;;;26.90;53.15
77739;BME280;66904;59.926;30.404;2023-09-12T19:27:57;101395.81;;;26.88;53.45
77739;BME280;66904;59.926;30.404;2023-09-12T19:32:57;101397.72;;;26.88;53.13
77739;BME280;66904;59.926;30.404;2023-09-12T19:38:00;101404.38;;;26.85;53.35
77739;BME280;66904;59.926;30.404;2023-09-12T19:43:02;101394.59;;;26.84;53.08
77739;BME280;66904;59.926;30.404;2023-09-12T19:48:05;101393.75;;;26.84;53.02
77739;BME280;66904;59.926;30.404;2023-09-12T19:53:05;101393.09;;;26.82;53.67
77739;BME280;66904;59.926;30.404;2023-09-12T19:58:06;101403.28;;;26.80;53.34
77739;BME280;66904;59.926;30.404;2023-09-12T20:03:06;101392.63;;;26.78;53.84
77739;BME280;66904;59.926;30.404;2023-09-12T20:08:10;101402.03;;;26.76;53.77
77739;BME280;66904;59.926;30.404;2023-09-12T20:13:14;101398.69;;;26.73;53.60
77739;BME280;66904;59.926;30.404;2023-09-12T20:18:14;101393.00;;;26.68;53.59
77739;BME280;66904;59.926;30.404;2023-09-12T20:23:15;101398.25;;;26.70;53.85
77739;BME280;66904;59.926;30.404;2023-09-12T20:28:17;101390.09;;;26.70;53.30
77739;BME280;66904;59.926;30.404;2023-09-12T20:33:18;101391.97;;;26.69;53.43
77739;BME280;66904;59.926;30.404;2023-09-12T20:38:19;101388.63;;;26.67;53.46
77739;BME280;66904;59.926;30.404;2023-09-12T20:43:23;101384.84;;;26.62;53.70
77739;BME280;66904;59.926;30.404;2023-09-12T20:48:23;101389.41;;;26.61;53.75
77739;BME280;66904;59.926;30.404;2023-09-12T20:53:24;101383.19;;;26.61;53.52
77739;BME280;66904;59.926;30.404;2023-09-12T20:58:24;101395.91;;;26.60;53.87
77739;BME280;66904;59.926;30.404;2023-09-12T21:03:25;101397.97;;;26.58;53.76
77739;BME280;66904;59.926;30.404;2023-09-12T21:08:29;101387.13;;;26.58;53.36
77739;BME280;66904;59.926;30.404;2023-09-12T21:13:31;101396.75;;;26.61;53.65
77739;BME280;66904;59.926;30.404;2023-09-12T21:18:32;101395.06;;;26.60;53.83
77739;BME280;66904;59.926;30.404;2023-09-12T21:23:33;101399.88;;;26.58;53.72
77739;BME280;66904;59.926;30.404;2023-09-12T21:28:33;101408.81;;;26.58;53.78
77739;BME280;66904;59.926;30.404;2023-09-12T21:33:34;101400.91;;;26.57;53.90
77739;BME280;66904;59.926;30.404;2023-09-12T21:38:35;101404.66;;;26.56;53.58
77739;BME280;66904;59.926;30.404;2023-09-12T21:43:35;101402.97;;;26.55;53.52
77739;BME280;66904;59.926;30.404;2023-09-12T21:48:36;101395.66;;;26.55;53.47
77739;BME280;66904;59.926;30.404;2023-09-12T21:53:37;101410.91;;;26.56;53.13
77739;BME280;66904;59.926;30.404;2023-09-12T21:58:37;101402.78;;;26.56;53.36
77739;BME280;66904;59.926;30.404;2023-09-12T22:03:38;101408.03;;;26.58;53.53
77739;BME280;66904;59.926;30.404;2023-09-12T22:08:38;101400.91;;;26.57;53.55
77739;BME280;66904;59.926;30.404;2023-09-12T22:13:39;101408.63;;;26.60;53.76
77739;BME280;66904;59.926;30.404;2023-09-12T22:18:40;101402.59;;;26.58;53.12
77739;BME280;66904;59.926;30.404;2023-09-12T22:23:40;101404.66;;;26.56;53.52
77739;BME280;66904;59.926;30.404;2023-09-12T22:28:41;101403.19;;;26.53;53.51
77739;BME280;66904;59.926;30.404;2023-09-12T22:33:42;101402.34;;;26.53;53.56
77739;BME280;66904;59.926;30.404;2023-09-12T22:38:43;101400.03;;;26.50;52.89
77739;BME280;66904;59.926;30.404;2023-09-12T22:43:43;101398.34;;;26.49;52.77
77739;BME280;66904;59.926;30.404;2023-09-12T22:48:44;101402.13;;;26.48;53.21
77739;BME280;66904;59.926;30.404;2023-09-12T22:53:44;101404.41;;;26.44;53.07
77739;BME280;66904;59.926;30.404;2023-09-12T22:58:45;101406.44;;;26.42;52.83
77739;BME280;66904;59.926;30.404;2023-09-12T23:03:47;101398.53;;;26.41;52.65
77739;BME280;66904;59.926;30.404;2023-09-12T23:08:47;101393.28;;;26.39;52.54
77739;BME280;66904;59.926;30.404;2023-09-12T23:13:48;101395.16;;;26.39;52.50
77739;BME280;66904;59.926;30.404;2023-09-12T23:18:48;101393.50;;;26.38;52.29
77739;BME280;66904;59.926;30.404;2023-09-12T23:23:49;101385.38;;;26.38;52.61
77739;BME280;66904;59.926;30.404;2023-09-12T23:28:49;101377.41;;;26.36;52.26
77739;BME280;66904;59.926;30.404;2023-09-12T23:33:50;101369.44;;;26.28;52.67
77739;BME280;66904;59.926;30.404;2023-09-12T23:38:51;101377.81;;;26.33;52.70
77739;BME280;66904;59.926;30.404;2023-09-12T23:43:51;101369.88;;;26.32;52.45
77739;BME280;66904;59.926;30.404;2023-09-12T23:48:52;101374.47;;;26.31;52.24
77739;BME280;66904;59.926;30.404;2023-09-12T23:53:52;101368.22;;;26.31;52.24
77739;BME280;66904;59.926;30.404;2023-09-12T23:58:53;101364.66;;;26.30;51.95
